sensor_id;sensor_type;location;lat;lon;timestamp;temperature;humidity
40153;DHT22;26371;56.992;23.912;2022-09-09T00:04:28;8.30;99.90
40153;DHT22;26371;56.992;23.912;2022-09-09T00:07:03;8.20;99.90
40153;DHT22;26371;56.992;23.912;2022-09-09T00:09:39;8.20;99.90
40153;DHT22;26371;56.992;23.912;2022-09-09T00:12:18;8.10;99.90
40153;DHT22;26371;56.992;23.912;2022-09-09T00:17:30;8.10;99.90
40153;DHT22;26371;56.992;23.912;2022-09-09T03:27:05;7.40;99.90
40153;DHT22;26371;56.992;23.912;2022-09-09T03:37:24;7.30;99.90
40153;DHT22;26371;56.992;23.912;2022-09-09T03:39:57;7.40;99.90
40153;DHT22;26371;56.992;23.912;2022-09-09T03:45:48;7.30;99.90
40153;DHT22;26371;56.992;23.912;2022-09-09T03:48:48;7.30;99.90
40153;DHT22;26371;56.992;23.912;2022-09-09T03:51:46;7.30;99.90
40153;DHT22;26371;56.992;23.912;2022-09-09T04:11:51;7.30;99.90
40153;DHT22;26371;56.992;23.912;2022-09-09T04:22:18;7.40;99.90
40153;DHT22;26371;56.992;23.912;2022-09-09T04:24:49;7.40;99.90
40153;DHT22;26371;56.992;23.912;2022-09-09T04:27:21;7.50;99.90
40153;DHT22;26371;56.992;23.912;2022-09-09T04:29:50;7.50;99.90
40153;DHT22;26371;56.992;23.912;2022-09-09T04:32:26;7.50;99.90
40153;DHT22;26371;56.992;23.912;2022-09-09T04:38:57;7.50;99.90
40153;DHT22;26371;56.992;23.912;2022-09-09T04:41:26;7.60;99.90
40153;DHT22;26371;56.992;23.912;2022-09-09T04:48:40;7.60;99.90
40153;DHT22;26371;56.992;23.912;2022-09-09T04:51:12;7.80;99.90
40153;DHT22;26371;56.992;23.912;2022-09-09T04:53:49;7.80;99.90
40153;DHT22;26371;56.992;23.912;2022-09-09T04:59:12;7.80;99.90
40153;DHT22;26371;56.992;23.912;2022-09-09T05:01:45;7.90;99.90
40153;DHT22;26371;56.992;23.912;2022-09-09T05:04:26;7.90;99.90
40153;DHT22;26371;56.992;23.912;2022-09-09T05:06:56;7.90;99.90
40153;DHT22;26371;56.992;23.912;2022-09-09T05:09:25;7.90;99.90
40153;DHT22;26371;56.992;23.912;2022-09-09T05:11:56;8.00;99.90
40153;DHT22;26371;56.992;23.912;2022-09-09T05:14:32;8.00;99.90
40153;DHT22;26371;56.992;23.912;2022-09-09T05:17:01;8.00;99.90
40153;DHT22;26371;56.992;23.912;2022-09-09T05:19:32;8.10;99.90
40153;DHT22;26371;56.992;23.912;2022-09-09T05:35:01;8.30;99.90
40153;DHT22;26371;56.992;23.912;2022-09-09T05:37:38;8.40;99.90
40153;DHT22;26371;56.992;23.912;2022-09-09T05:40:08;8.40;99.90
40153;DHT22;26371;56.992;23.912;2022-09-09T05:42:43;8.40;99.90
40153;DHT22;26371;56.992;23.912;2022-09-09T05:45:12;8.40;99.90
40153;DHT22;26371;56.992;23.912;2022-09-09T05:47:41;8.50;99.90
40153;DHT22;26371;56.992;23.912;2022-09-09T05:50:14;8.50;99.90
40153;DHT22;26371;56.992;23.912;2022-09-09T05:53:08;8.50;99.90
40153;DHT22;26371;56.992;23.912;2022-09-09T06:00:38;8.70;99.90
40153;DHT22;26371;56.992;23.912;2022-09-09T06:21:30;9.20;99.90
40153;DHT22;26371;56.992;23.912;2022-09-09T06:24:26;9.20;99.90
40153;DHT22;26371;56.992;23.912;2022-09-09T06:26:59;9.20;99.90
40153;DHT22;26371;56.992;23.912;2022-09-09T06:29:35;9.30;99.90
40153;DHT22;26371;56.992;23.912;2022-09-09T06:36:27;9.40;99.90
40153;DHT22;26371;56.992;23.912;2022-09-09T06:38:57;9.50;99.90
40153;DHT22;26371;56.992;23.912;2022-09-09T06:41:28;9.50;99.90
40153;DHT22;26371;56.992;23.912;2022-09-09T06:43:58;9.50;99.90
40153;DHT22;26371;56.992;23.912;2022-09-09T06:51:20;9.70;99.90
40153;DHT22;26371;56.992;23.912;2022-09-09T06:53:52;9.80;99.90
40153;DHT22;26371;56.992;23.912;2022-09-09T06:56:25;9.80;99.90
40153;DHT22;26371;56.992;23.912;2022-09-09T06:59:25;9.90;99.90
40153;DHT22;26371;56.992;23.912;2022-09-09T07:02:07;10.00;99.90
40153;DHT22;26371;56.992;23.912;2022-09-09T07:04:37;10.00;99.90
40153;DHT22;26371;56.992;23.912;2022-09-09T07:07:08;10.10;99.90
40153;DHT22;26371;56.992;23.912;2022-09-09T07:10:08;10.10;99.90
40153;DHT22;26371;56.992;23.912;2022-09-09T07:13:02;10.20;99.90
40153;DHT22;26371;56.992;23.912;2022-09-09T07:15:32;10.20;99.90
40153;DHT22;26371;56.992;23.912;2022-09-09T07:25:49;10.50;99.90
40153;DHT22;26371;56.992;23.912;2022-09-09T07:28:22;10.50;99.90
40153;DHT22;26371;56.992;23.912;2022-09-09T07:30:55;10.70;99.90
40153;DHT22;26371;56.992;23.912;2022-09-09T07:38:03;10.80;99.90
40153;DHT22;26371;56.992;23.912;2022-09-09T07:40:35;10.90;99.90
40153;DHT22;26371;56.992;23.912;2022-09-09T07:47:18;11.10;99.90
40153;DHT22;26371;56.992;23.912;2022-09-09T07:49:50;11.10;99.90
40153;DHT22;26371;56.992;23.912;2022-09-09T07:52:24;11.20;99.90
40153;DHT22;26371;56.992;23.912;2022-09-09T08:03:17;11.50;99.90
40153;DHT22;26371;56.992;23.912;2022-09-09T08:06:08;11.70;99.90
40153;DHT22;26371;56.992;23.912;2022-09-09T08:08:37;11.80;99.90
40153;DHT22;26371;56.992;23.912;2022-09-09T08:11:13;11.90;99.90
40153;DHT22;26371;56.992;23.912;2022-09-09T08:13:43;11.90;99.90
40153;DHT22;26371;56.992;23.912;2022-09-09T08:16:22;11.90;99.30
40153;DHT22;26371;56.992;23.912;2022-09-09T08:18:53;11.90;99.30
40153;DHT22;26371;56.992;23.912;2022-09-09T08:24:33;11.90;99.10
40153;DHT22;26371;56.992;23.912;2022-09-09T08:27:04;12.10;99.40
40153;DHT22;26371;56.992;23.912;2022-09-09T08:29:34;12.10;98.60
40153;DHT22;26371;56.992;23.912;2022-09-09T08:32:07;12.10;98.70
40153;DHT22;26371;56.992;23.912;2022-09-09T08:38:39;12.30;98.50
40153;DHT22;26371;56.992;23.912;2022-09-09T08:41:24;12.30;98.50
40153;DHT22;26371;56.992;23.912;2022-09-09T08:44:06;12.30;98.70
40153;DHT22;26371;56.992;23.912;2022-09-09T08:47:11;12.40;98.80
40153;DHT22;26371;56.992;23.912;2022-09-09T08:53:19;12.60;98.80
40153;DHT22;26371;56.992;23.912;2022-09-09T08:55:54;12.70;98.40
40153;DHT22;26371;56.992;23.912;2022-09-09T08:58:45;12.80;98.00
40153;DHT22;26371;56.992;23.912;2022-09-09T09:01:38;12.80;98.00
40153;DHT22;26371;56.992;23.912;2022-09-09T09:08:05;12.90;97.00
40153;DHT22;26371;56.992;23.912;2022-09-09T09:10:46;12.90;96.80
40153;DHT22;26371;56.992;23.912;2022-09-09T09:13:30;13.00;96.50
40153;DHT22;26371;56.992;23.912;2022-09-09T09:16:17;13.00;96.80
40153;DHT22;26371;56.992;23.912;2022-09-09T09:18:48;13.10;96.90
40153;DHT22;26371;56.992;23.912;2022-09-09T09:21:24;13.10;96.70
40153;DHT22;26371;56.992;23.912;2022-09-09T09:23:58;13.20;96.20
40153;DHT22;26371;56.992;23.912;2022-09-09T09:26:34;13.20;96.50
40153;DHT22;26371;56.992;23.912;2022-09-09T09:29:11;13.30;96.50
40153;DHT22;26371;56.992;23.912;2022-09-09T09:31:44;13.30;96.40
40153;DHT22;26371;56.992;23.912;2022-09-09T09:34:15;13.40;97.10
40153;DHT22;26371;56.992;23.912;2022-09-09T09:36:53;13.40;96.40
40153;DHT22;26371;56.992;23.912;2022-09-09T09:39:25;13.50;96.40
40153;DHT22;26371;56.992;23.912;2022-09-09T09:42:17;13.60;96.00
40153;DHT22;26371;56.992;23.912;2022-09-09T09:44:53;13.60;95.90
40153;DHT22;26371;56.992;23.912;2022-09-09T09:47:23;13.70;95.90
40153;DHT22;26371;56.992;23.912;2022-09-09T09:50:19;13.70;96.10
40153;DHT22;26371;56.992;23.912;2022-09-09T09:52:56;13.80;96.10
40153;DHT22;26371;56.992;23.912;2022-09-09T09:55:29;13.90;96.70
40153;DHT22;26371;56.992;23.912;2022-09-09T09:58:03;13.90;96.30
40153;DHT22;26371;56.992;23.912;2022-09-09T10:00:35;14.00;96.50
40153;DHT22;26371;56.992;23.912;2022-09-09T10:03:24;14.00;95.70
40153;DHT22;26371;56.992;23.912;2022-09-09T10:05:54;14.10;95.90
40153;DHT22;26371;56.992;23.912;2022-09-09T10:08:26;14.20;95.60
40153;DHT22;26371;56.992;23.912;2022-09-09T10:13:37;14.40;95.70
40153;DHT22;26371;56.992;23.912;2022-09-09T10:16:22;14.50;95.60
40153;DHT22;26371;56.992;23.912;2022-09-09T10:18:59;14.60;95.40
40153;DHT22;26371;56.992;23.912;2022-09-09T10:21:51;14.70;94.90
40153;DHT22;26371;56.992;23.912;2022-09-09T10:24:58;14.80;94.80
40153;DHT22;26371;56.992;23.912;2022-09-09T10:27:38;14.90;95.10
40153;DHT22;26371;56.992;23.912;2022-09-09T10:30:14;15.00;94.60
40153;DHT22;26371;56.992;23.912;2022-09-09T10:33:02;15.10;94.20
40153;DHT22;26371;56.992;23.912;2022-09-09T10:35:40;15.20;94.40
40153;DHT22;26371;56.992;23.912;2022-09-09T10:38:22;15.30;94.80
40153;DHT22;26371;56.992;23.912;2022-09-09T10:41:18;15.40;94.40
40153;DHT22;26371;56.992;23.912;2022-09-09T10:44:14;15.50;93.90
40153;DHT22;26371;56.992;23.912;2022-09-09T10:46:56;15.60;94.10
40153;DHT22;26371;56.992;23.912;2022-09-09T10:49:47;15.60;94.10
40153;DHT22;26371;56.992;23.912;2022-09-09T10:52:21;15.70;94.10
40153;DHT22;26371;56.992;23.912;2022-09-09T10:54:58;15.70;94.30
40153;DHT22;26371;56.992;23.912;2022-09-09T10:57:33;16.00;94.00
40153;DHT22;26371;56.992;23.912;2022-09-09T11:00:06;16.00;94.20
40153;DHT22;26371;56.992;23.912;2022-09-09T11:02:43;16.10;94.30
40153;DHT22;26371;56.992;23.912;2022-09-09T11:19:43;16.20;93.50
40153;DHT22;26371;56.992;23.912;2022-09-09T11:22:27;16.30;93.90
40153;DHT22;26371;56.992;23.912;2022-09-09T11:25:01;16.40;93.90
40153;DHT22;26371;56.992;23.912;2022-09-09T11:27:37;16.50;94.20
40153;DHT22;26371;56.992;23.912;2022-09-09T11:36:56;16.80;93.50
40153;DHT22;26371;56.992;23.912;2022-09-09T11:39:51;16.80;93.70
40153;DHT22;26371;56.992;23.912;2022-09-09T11:42:24;16.80;93.50
40153;DHT22;26371;56.992;23.912;2022-09-09T11:44:53;16.80;93.30
40153;DHT22;26371;56.992;23.912;2022-09-09T11:47:25;16.80;93.50
40153;DHT22;26371;56.992;23.912;2022-09-09T11:50:09;16.90;93.70
40153;DHT22;26371;56.992;23.912;2022-09-09T11:52:42;16.90;92.80
40153;DHT22;26371;56.992;23.912;2022-09-09T11:55:27;17.00;93.80
40153;DHT22;26371;56.992;23.912;2022-09-09T11:57:58;17.10;93.00
40153;DHT22;26371;56.992;23.912;2022-09-09T12:00:34;17.10;93.60
40153;DHT22;26371;56.992;23.912;2022-09-09T12:03:05;17.20;93.60
40153;DHT22;26371;56.992;23.912;2022-09-09T12:05:40;17.30;93.20
40153;DHT22;26371;56.992;23.912;2022-09-09T12:08:16;17.40;93.50
40153;DHT22;26371;56.992;23.912;2022-09-09T12:10:55;17.40;92.80
40153;DHT22;26371;56.992;23.912;2022-09-09T12:13:26;17.50;93.10
40153;DHT22;26371;56.992;23.912;2022-09-09T12:15:56;17.60;93.40
40153;DHT22;26371;56.992;23.912;2022-09-09T12:18:34;17.70;92.70
40153;DHT22;26371;56.992;23.912;2022-09-09T12:21:18;17.70;92.70
40153;DHT22;26371;56.992;23.912;2022-09-09T12:23:52;17.80;93.10
40153;DHT22;26371;56.992;23.912;2022-09-09T12:26:32;17.90;92.70
40153;DHT22;26371;56.992;23.912;2022-09-09T12:29:11;17.90;92.80
40153;DHT22;26371;56.992;23.912;2022-09-09T12:31:48;17.80;92.30
40153;DHT22;26371;56.992;23.912;2022-09-09T12:34:38;17.80;92.40
40153;DHT22;26371;56.992;23.912;2022-09-09T12:40:42;17.90;92.40
40153;DHT22;26371;56.992;23.912;2022-09-09T12:43:21;17.80;92.30
40153;DHT22;26371;56.992;23.912;2022-09-09T12:46:32;17.70;92.60
40153;DHT22;26371;56.992;23.912;2022-09-09T12:49:04;17.70;92.30
40153;DHT22;26371;56.992;23.912;2022-09-09T12:51:38;17.60;92.40
40153;DHT22;26371;56.992;23.912;2022-09-09T12:54:13;17.50;92.40
40153;DHT22;26371;56.992;23.912;2022-09-09T12:56:46;17.40;92.90
40153;DHT22;26371;56.992;23.912;2022-09-09T12:59:26;17.40;93.20
40153;DHT22;26371;56.992;23.912;2022-09-09T13:02:17;17.40;92.40
40153;DHT22;26371;56.992;23.912;2022-09-09T13:04:48;17.30;93.00
40153;DHT22;26371;56.992;23.912;2022-09-09T13:07:18;17.30;92.80
40153;DHT22;26371;56.992;23.912;2022-09-09T13:10:22;17.30;92.80
40153;DHT22;26371;56.992;23.912;2022-09-09T13:17:29;17.50;93.20
40153;DHT22;26371;56.992;23.912;2022-09-09T13:20:17;17.60;93.10
40153;DHT22;26371;56.992;23.912;2022-09-09T13:23:14;17.70;93.00
40153;DHT22;26371;56.992;23.912;2022-09-09T13:25:53;17.80;92.80
40153;DHT22;26371;56.992;23.912;2022-09-09T13:28:25;17.80;92.50
40153;DHT22;26371;56.992;23.912;2022-09-09T13:31:00;17.90;92.70
40153;DHT22;26371;56.992;23.912;2022-09-09T13:37:02;18.00;92.80
40153;DHT22;26371;56.992;23.912;2022-09-09T13:39:34;18.00;92.00
40153;DHT22;26371;56.992;23.912;2022-09-09T13:47:01;18.00;92.80
40153;DHT22;26371;56.992;23.912;2022-09-09T13:49:37;17.80;92.80
40153;DHT22;26371;56.992;23.912;2022-09-09T13:52:09;17.70;92.60
40153;DHT22;26371;56.992;23.912;2022-09-09T13:54:39;17.50;93.40
40153;DHT22;26371;56.992;23.912;2022-09-09T13:57:15;17.50;93.10
40153;DHT22;26371;56.992;23.912;2022-09-09T13:59:45;17.50;93.30
40153;DHT22;26371;56.992;23.912;2022-09-09T14:02:32;17.50;93.00
40153;DHT22;26371;56.992;23.912;2022-09-09T14:05:02;17.50;93.20
40153;DHT22;26371;56.992;23.912;2022-09-09T14:07:33;17.50;93.20
40153;DHT22;26371;56.992;23.912;2022-09-09T14:10:02;17.50;92.30
40153;DHT22;26371;56.992;23.912;2022-09-09T14:12:32;17.40;93.30
40153;DHT22;26371;56.992;23.912;2022-09-09T14:15:04;17.40;93.40
40153;DHT22;26371;56.992;23.912;2022-09-09T14:17:34;17.30;93.20
40153;DHT22;26371;56.992;23.912;2022-09-09T14:20:04;17.40;93.40
40153;DHT22;26371;56.992;23.912;2022-09-09T14:22:37;17.40;93.70
40153;DHT22;26371;56.992;23.912;2022-09-09T14:25:08;17.40;93.10
40153;DHT22;26371;56.992;23.912;2022-09-09T14:27:37;17.30;92.20
40153;DHT22;26371;56.992;23.912;2022-09-09T14:30:08;17.30;92.50
40153;DHT22;26371;56.992;23.912;2022-09-09T14:32:37;17.10;92.30
40153;DHT22;26371;56.992;23.912;2022-09-09T14:35:07;17.10;93.30
40153;DHT22;26371;56.992;23.912;2022-09-09T14:37:38;17.10;92.50
40153;DHT22;26371;56.992;23.912;2022-09-09T14:40:08;17.00;92.90
40153;DHT22;26371;56.992;23.912;2022-09-09T14:42:38;17.10;93.30
40153;DHT22;26371;56.992;23.912;2022-09-09T14:45:09;17.10;93.00
40153;DHT22;26371;56.992;23.912;2022-09-09T14:47:38;17.10;93.20
40153;DHT22;26371;56.992;23.912;2022-09-09T14:50:07;17.10;93.60
40153;DHT22;26371;56.992;23.912;2022-09-09T14:52:38;17.20;93.50
40153;DHT22;26371;56.992;23.912;2022-09-09T14:55:08;17.30;93.30
40153;DHT22;26371;56.992;23.912;2022-09-09T14:57:37;17.30;93.30
40153;DHT22;26371;56.992;23.912;2022-09-09T15:00:09;17.40;93.20
40153;DHT22;26371;56.992;23.912;2022-09-09T15:02:39;17.40;93.40
40153;DHT22;26371;56.992;23.912;2022-09-09T15:05:09;17.40;93.30
40153;DHT22;26371;56.992;23.912;2022-09-09T15:07:40;17.50;92.80
40153;DHT22;26371;56.992;23.912;2022-09-09T15:10:09;17.40;93.00
40153;DHT22;26371;56.992;23.912;2022-09-09T15:12:38;17.50;93.10
40153;DHT22;26371;56.992;23.912;2022-09-09T15:15:09;17.50;92.80
40153;DHT22;26371;56.992;23.912;2022-09-09T15:17:40;17.40;93.00
40153;DHT22;26371;56.992;23.912;2022-09-09T15:20:09;17.20;92.90
40153;DHT22;26371;56.992;23.912;2022-09-09T15:22:39;17.10;92.20
40153;DHT22;26371;56.992;23.912;2022-09-09T15:25:09;17.00;93.20
40153;DHT22;26371;56.992;23.912;2022-09-09T15:27:39;16.90;93.40
40153;DHT22;26371;56.992;23.912;2022-09-09T15:30:09;16.90;93.30
40153;DHT22;26371;56.992;23.912;2022-09-09T15:32:39;16.70;92.70
40153;DHT22;26371;56.992;23.912;2022-09-09T15:35:08;16.60;93.30
40153;DHT22;26371;56.992;23.912;2022-09-09T15:37:38;16.40;93.00
40153;DHT22;26371;56.992;23.912;2022-09-09T15:40:08;16.40;92.80
40153;DHT22;26371;56.992;23.912;2022-09-09T15:42:37;16.30;93.10
40153;DHT22;26371;56.992;23.912;2022-09-09T15:45:08;16.20;93.50
40153;DHT22;26371;56.992;23.912;2022-09-09T15:47:37;16.10;93.90
40153;DHT22;26371;56.992;23.912;2022-09-09T15:50:07;16.00;94.00
40153;DHT22;26371;56.992;23.912;2022-09-09T15:52:36;15.80;93.90
40153;DHT22;26371;56.992;23.912;2022-09-09T15:55:07;15.70;93.70
40153;DHT22;26371;56.992;23.912;2022-09-09T15:57:36;15.60;94.00
40153;DHT22;26371;56.992;23.912;2022-09-09T16:00:06;15.60;94.00
40153;DHT22;26371;56.992;23.912;2022-09-09T16:02:36;15.60;99.90
40153;DHT22;26371;56.992;23.912;2022-09-09T16:05:07;15.50;99.90
40153;DHT22;26371;56.992;23.912;2022-09-09T16:07:36;15.30;94.50
40153;DHT22;26371;56.992;23.912;2022-09-09T16:10:07;15.20;94.70
40153;DHT22;26371;56.992;23.912;2022-09-09T16:12:36;15.20;94.50
40153;DHT22;26371;56.992;23.912;2022-09-09T16:15:07;15.10;94.90
40153;DHT22;26371;56.992;23.912;2022-09-09T16:17:36;15.00;95.30
40153;DHT22;26371;56.992;23.912;2022-09-09T16:20:06;14.90;95.50
40153;DHT22;26371;56.992;23.912;2022-09-09T16:22:36;14.90;95.70
40153;DHT22;26371;56.992;23.912;2022-09-09T16:25:07;14.80;96.20
40153;DHT22;26371;56.992;23.912;2022-09-09T16:27:37;14.60;96.20
40153;DHT22;26371;56.992;23.912;2022-09-09T16:30:07;14.50;96.60
40153;DHT22;26371;56.992;23.912;2022-09-09T16:32:37;14.40;97.10
40153;DHT22;26371;56.992;23.912;2022-09-09T16:35:06;14.30;97.40
40153;DHT22;26371;56.992;23.912;2022-09-09T16:37:35;14.20;97.40
40153;DHT22;26371;56.992;23.912;2022-09-09T16:40:05;14.10;97.40
40153;DHT22;26371;56.992;23.912;2022-09-09T16:42:37;14.10;97.30
40153;DHT22;26371;56.992;23.912;2022-09-09T16:45:07;14.10;97.50
40153;DHT22;26371;56.992;23.912;2022-09-09T16:47:36;14.00;97.70
40153;DHT22;26371;56.992;23.912;2022-09-09T16:50:06;13.90;97.70
40153;DHT22;26371;56.992;23.912;2022-09-09T16:52:35;13.80;97.90
40153;DHT22;26371;56.992;23.912;2022-09-09T16:55:04;13.80;98.00
40153;DHT22;26371;56.992;23.912;2022-09-09T16:57:34;13.60;98.20
40153;DHT22;26371;56.992;23.912;2022-09-09T17:00:06;13.60;98.30
40153;DHT22;26371;56.992;23.912;2022-09-09T17:02:35;13.60;98.10
40153;DHT22;26371;56.992;23.912;2022-09-09T17:05:06;13.50;98.10
40153;DHT22;26371;56.992;23.912;2022-09-09T17:07:35;13.50;98.10
40153;DHT22;26371;56.992;23.912;2022-09-09T17:10:06;13.50;98.00
40153;DHT22;26371;56.992;23.912;2022-09-09T17:12:35;13.50;98.00
40153;DHT22;26371;56.992;23.912;2022-09-09T17:15:11;13.50;99.90
40153;DHT22;26371;56.992;23.912;2022-09-09T17:17:40;13.50;99.90
40153;DHT22;26371;56.992;23.912;2022-09-09T17:20:11;13.50;99.90
40153;DHT22;26371;56.992;23.912;2022-09-09T17:22:42;13.50;99.90
40153;DHT22;26371;56.992;23.912;2022-09-09T17:45:08;12.90;99.90
40153;DHT22;26371;56.992;23.912;2022-09-09T17:47:38;13.00;99.90
40153;DHT22;26371;56.992;23.912;2022-09-09T17:50:08;12.90;99.90
40153;DHT22;26371;56.992;23.912;2022-09-09T17:52:37;12.80;99.90
40153;DHT22;26371;56.992;23.912;2022-09-09T17:55:08;12.70;99.90
40153;DHT22;26371;56.992;23.912;2022-09-09T17:57:37;12.70;99.90
40153;DHT22;26371;56.992;23.912;2022-09-09T18:00:08;12.60;99.90
40153;DHT22;26371;56.992;23.912;2022-09-09T18:02:42;12.40;99.90
40153;DHT22;26371;56.992;23.912;2022-09-09T18:05:11;12.30;99.90
40153;DHT22;26371;56.992;23.912;2022-09-09T18:07:41;12.20;99.90
40153;DHT22;26371;56.992;23.912;2022-09-09T18:10:10;12.20;99.90
40153;DHT22;26371;56.992;23.912;2022-09-09T18:12:39;12.10;99.90
40153;DHT22;26371;56.992;23.912;2022-09-09T18:15:09;12.10;99.90
40153;DHT22;26371;56.992;23.912;2022-09-09T18:17:46;12.10;99.90
40153;DHT22;26371;56.992;23.912;2022-09-09T18:20:15;12.10;99.90
40153;DHT22;26371;56.992;23.912;2022-09-09T18:22:44;12.10;99.90
40153;DHT22;26371;56.992;23.912;2022-09-09T18:25:13;12.00;99.90
40153;DHT22;26371;56.992;23.912;2022-09-09T18:27:43;12.00;99.90
40153;DHT22;26371;56.992;23.912;2022-09-09T18:30:12;12.00;99.90
40153;DHT22;26371;56.992;23.912;2022-09-09T18:32:42;12.00;99.90
40153;DHT22;26371;56.992;23.912;2022-09-09T18:35:13;12.00;99.90
40153;DHT22;26371;56.992;23.912;2022-09-09T18:37:42;12.00;99.90
40153;DHT22;26371;56.992;23.912;2022-09-09T18:40:11;12.00;99.90
40153;DHT22;26371;56.992;23.912;2022-09-09T18:42:41;11.90;99.90
40153;DHT22;26371;56.992;23.912;2022-09-09T18:45:09;11.80;99.90
40153;DHT22;26371;56.992;23.912;2022-09-09T18:47:39;11.60;99.90
40153;DHT22;26371;56.992;23.912;2022-09-09T18:50:09;11.50;99.90
40153;DHT22;26371;56.992;23.912;2022-09-09T18:52:40;11.50;99.90
40153;DHT22;26371;56.992;23.912;2022-09-09T18:55:10;11.40;99.90
40153;DHT22;26371;56.992;23.912;2022-09-09T18:57:39;11.40;99.90
40153;DHT22;26371;56.992;23.912;2022-09-09T19:00:10;11.40;99.90
40153;DHT22;26371;56.992;23.912;2022-09-09T19:02:40;11.40;99.90
40153;DHT22;26371;56.992;23.912;2022-09-09T19:05:09;11.30;99.90
40153;DHT22;26371;56.992;23.912;2022-09-09T19:07:39;11.30;99.90
40153;DHT22;26371;56.992;23.912;2022-09-09T19:10:09;11.30;99.90
40153;DHT22;26371;56.992;23.912;2022-09-09T19:12:38;11.30;99.90
40153;DHT22;26371;56.992;23.912;2022-09-09T19:15:08;11.30;99.90
40153;DHT22;26371;56.992;23.912;2022-09-09T19:17:38;11.30;99.90
40153;DHT22;26371;56.992;23.912;2022-09-09T19:20:07;11.30;99.90
40153;DHT22;26371;56.992;23.912;2022-09-09T19:22:37;11.30;99.90
40153;DHT22;26371;56.992;23.912;2022-09-09T19:25:08;11.30;99.90
40153;DHT22;26371;56.992;23.912;2022-09-09T19:27:37;11.30;99.90
40153;DHT22;26371;56.992;23.912;2022-09-09T19:30:07;11.30;99.90
40153;DHT22;26371;56.992;23.912;2022-09-09T19:32:36;11.30;99.90
40153;DHT22;26371;56.992;23.912;2022-09-09T19:35:21;11.30;99.90
40153;DHT22;26371;56.992;23.912;2022-09-09T19:37:50;11.30;99.90
40153;DHT22;26371;56.992;23.912;2022-09-09T19:40:21;11.30;99.90
40153;DHT22;26371;56.992;23.912;2022-09-09T19:42:50;11.30;99.90
40153;DHT22;26371;56.992;23.912;2022-09-09T19:45:20;11.30;99.90
40153;DHT22;26371;56.992;23.912;2022-09-09T19:47:50;11.30;99.90
40153;DHT22;26371;56.992;23.912;2022-09-09T19:50:19;11.30;99.90
40153;DHT22;26371;56.992;23.912;2022-09-09T19:52:49;11.30;99.90
40153;DHT22;26371;56.992;23.912;2022-09-09T19:55:20;11.30;99.90
40153;DHT22;26371;56.992;23.912;2022-09-09T19:57:55;11.30;99.90
40153;DHT22;26371;56.992;23.912;2022-09-09T20:00:24;11.30;99.90
40153;DHT22;26371;56.992;23.912;2022-09-09T20:02:54;11.20;99.90
40153;DHT22;26371;56.992;23.912;2022-09-09T20:05:46;11.20;99.90
40153;DHT22;26371;56.992;23.912;2022-09-09T20:08:16;11.20;99.90
40153;DHT22;26371;56.992;23.912;2022-09-09T20:10:53;11.20;99.90
40153;DHT22;26371;56.992;23.912;2022-09-09T20:13:22;11.20;99.90
40153;DHT22;26371;56.992;23.912;2022-09-09T20:15:58;11.20;99.90
40153;DHT22;26371;56.992;23.912;2022-09-09T20:18:32;11.20;99.90
40153;DHT22;26371;56.992;23.912;2022-09-09T20:21:03;11.10;99.90
40153;DHT22;26371;56.992;23.912;2022-09-09T20:23:33;11.00;99.90
40153;DHT22;26371;56.992;23.912;2022-09-09T20:26:07;11.10;99.90
40153;DHT22;26371;56.992;23.912;2022-09-09T20:28:37;11.00;99.90
40153;DHT22;26371;56.992;23.912;2022-09-09T20:31:08;11.00;99.90
40153;DHT22;26371;56.992;23.912;2022-09-09T20:33:38;11.00;99.90
40153;DHT22;26371;56.992;23.912;2022-09-09T20:36:12;11.00;99.90
40153;DHT22;26371;56.992;23.912;2022-09-09T20:38:42;11.00;99.90
40153;DHT22;26371;56.992;23.912;2022-09-09T20:41:14;11.00;99.90
40153;DHT22;26371;56.992;23.912;2022-09-09T20:43:45;11.00;99.90
40153;DHT22;26371;56.992;23.912;2022-09-09T20:46:17;11.00;99.90
40153;DHT22;26371;56.992;23.912;2022-09-09T20:48:48;10.90;99.90
40153;DHT22;26371;56.992;23.912;2022-09-09T20:51:17;10.90;99.90
40153;DHT22;26371;56.992;23.912;2022-09-09T20:53:52;10.90;99.90
40153;DHT22;26371;56.992;23.912;2022-09-09T20:56:25;11.00;99.90
40153;DHT22;26371;56.992;23.912;2022-09-09T20:58:54;10.90;99.90
40153;DHT22;26371;56.992;23.912;2022-09-09T21:01:23;10.90;99.90
40153;DHT22;26371;56.992;23.912;2022-09-09T21:03:53;10.90;99.90
40153;DHT22;26371;56.992;23.912;2022-09-09T21:06:22;10.90;99.90
40153;DHT22;26371;56.992;23.912;2022-09-09T21:08:51;10.90;99.90
40153;DHT22;26371;56.992;23.912;2022-09-09T21:11:20;10.80;99.90
40153;DHT22;26371;56.992;23.912;2022-09-09T21:13:51;10.80;99.90
40153;DHT22;26371;56.992;23.912;2022-09-09T21:16:22;10.90;99.90
40153;DHT22;26371;56.992;23.912;2022-09-09T21:18:51;10.80;99.90
40153;DHT22;26371;56.992;23.912;2022-09-09T21:21:20;10.80;99.90
40153;DHT22;26371;56.992;23.912;2022-09-09T21:23:53;10.80;99.90
40153;DHT22;26371;56.992;23.912;2022-09-09T21:26:23;10.70;99.90
40153;DHT22;26371;56.992;23.912;2022-09-09T21:28:55;10.70;99.90
40153;DHT22;26371;56.992;23.912;2022-09-09T21:31:24;10.70;99.90
40153;DHT22;26371;56.992;23.912;2022-09-09T21:33:55;10.60;99.90
40153;DHT22;26371;56.992;23.912;2022-09-09T21:36:25;10.60;99.90
40153;DHT22;26371;56.992;23.912;2022-09-09T21:38:55;10.50;99.90
40153;DHT22;26371;56.992;23.912;2022-09-09T21:41:25;10.50;99.90
40153;DHT22;26371;56.992;23.912;2022-09-09T21:43:56;10.50;99.90
40153;DHT22;26371;56.992;23.912;2022-09-09T21:46:26;10.50;99.90
40153;DHT22;26371;56.992;23.912;2022-09-09T21:48:57;10.50;99.90
40153;DHT22;26371;56.992;23.912;2022-09-09T21:51:27;10.50;99.90
40153;DHT22;26371;56.992;23.912;2022-09-09T21:53:56;10.50;99.90
40153;DHT22;26371;56.992;23.912;2022-09-09T21:56:25;10.50;99.90
40153;DHT22;26371;56.992;23.912;2022-09-09T21:58:56;10.40;99.90
40153;DHT22;26371;56.992;23.912;2022-09-09T22:01:25;10.40;99.90
40153;DHT22;26371;56.992;23.912;2022-09-09T22:03:54;10.40;99.90
40153;DHT22;26371;56.992;23.912;2022-09-09T22:06:23;10.40;99.90
40153;DHT22;26371;56.992;23.912;2022-09-09T22:08:53;10.40;99.90
40153;DHT22;26371;56.992;23.912;2022-09-09T22:11:25;10.40;99.90
40153;DHT22;26371;56.992;23.912;2022-09-09T22:13:56;10.40;99.90
40153;DHT22;26371;56.992;23.912;2022-09-09T22:16:24;10.40;99.90
40153;DHT22;26371;56.992;23.912;2022-09-09T22:18:55;10.30;99.90
40153;DHT22;26371;56.992;23.912;2022-09-09T22:21:26;10.30;99.90
40153;DHT22;26371;56.992;23.912;2022-09-09T22:23:56;10.30;99.90